sensor_id;sensor_type;location;lat;lon;timestamp;pressure;altitude;pressure_sealevel;temperature
27826;BMP280;15077;49.704;9.908;2023-06-10T00:01:51;97917.56;;;23.41
27826;BMP280;15077;49.704;9.908;2023-06-10T00:04:22;97918.81;;;23.37
27826;BMP280;15077;49.704;9.908;2023-06-10T00:06:50;97908.88;;;23.33
27826;BMP280;15077;49.704;9.908;2023-06-10T00:09:16;97910.81;;;23.31
27826;BMP280;15077;49.704;9.908;2023-06-10T00:11:44;97911.09;;;23.28
27826;BMP280;15077;49.704;9.908;2023-06-10T00:14:10;97920.09;;;23.24
27826;BMP280;15077;49.704;9.908;2023-06-10T00:16:36;97911.97;;;23.19
27826;BMP280;15077;49.704;9.908;2023-06-10T00:19:05;97909.53;;;23.17
27826;BMP280;15077;49.704;9.908;2023-06-10T00:21:33;97905.44;;;23.15
27826;BMP280;15077;49.704;9.908;2023-06-10T00:24:10;97906.56;;;23.12
27826;BMP280;15077;49.704;9.908;2023-06-10T00:26:38;97913.91;;;23.07
27826;BMP280;15077;49.704;9.908;2023-06-10T00:29:04;97909.03;;;23.04
27826;BMP280;15077;49.704;9.908;2023-06-10T00:31:30;97908.50;;;23.01
27826;BMP280;15077;49.704;9.908;2023-06-10T00:33:56;97910.41;;;22.99
27826;BMP280;15077;49.704;9.908;2023-06-10T00:36:23;97908.09;;;22.96
27826;BMP280;15077;49.704;9.908;2023-06-10T00:38:49;97916.94;;;22.93
27826;BMP280;15077;49.704;9.908;2023-06-10T00:41:15;97909.88;;;22.95
27826;BMP280;15077;49.704;9.908;2023-06-10T00:43:40;97913.53;;;22.93
27826;BMP280;15077;49.704;9.908;2023-06-10T00:46:06;97905.41;;;22.88
27826;BMP280;15077;49.704;9.908;2023-06-10T00:48:33;97913.44;;;22.85
27826;BMP280;15077;49.704;9.908;2023-06-10T00:51:00;97909.63;;;22.80
27826;BMP280;15077;49.704;9.908;2023-06-10T00:53:27;97916.72;;;22.78
27826;BMP280;15077;49.704;9.908;2023-06-10T00:55:53;97915.38;;;22.74
27826;BMP280;15077;49.704;9.908;2023-06-10T00:58:19;97913.06;;;22.71
27826;BMP280;15077;49.704;9.908;2023-06-10T01:00:46;97910.25;;;22.64
27826;BMP280;15077;49.704;9.908;2023-06-10T01:03:12;97912.28;;;22.61
27826;BMP280;15077;49.704;9.908;2023-06-10T01:05:39;97920.44;;;22.56
27826;BMP280;15077;49.704;9.908;2023-06-10T01:08:54;97919.81;;;22.45
27826;BMP280;15077;49.704;9.908;2023-06-10T01:11:28;97920.59;;;22.45
27826;BMP280;15077;49.704;9.908;2023-06-10T01:13:56;97921.81;;;22.42
27826;BMP280;15077;49.704;9.908;2023-06-10T01:16:23;97918.72;;;22.38
27826;BMP280;15077;49.704;9.908;2023-06-10T01:18:51;97919.78;;;22.36
27826;BMP280;15077;49.704;9.908;2023-06-10T01:21:22;97920.78;;;22.35
27826;BMP280;15077;49.704;9.908;2023-06-10T01:23:52;97915.03;;;22.31
27826;BMP280;15077;49.704;9.908;2023-06-10T01:26:23;97913.44;;;22.30
27826;BMP280;15077;49.704;9.908;2023-06-10T01:29:32;97914.66;;;22.17
27826;BMP280;15077;49.704;9.908;2023-06-10T01:32:15;97906.53;;;22.21
27826;BMP280;15077;49.704;9.908;2023-06-10T01:34:43;97911.69;;;22.21
27826;BMP280;15077;49.704;9.908;2023-06-10T01:37:16;97908.38;;;22.19
27826;BMP280;15077;49.704;9.908;2023-06-10T01:39:48;97911.94;;;22.18
27826;BMP280;15077;49.704;9.908;2023-06-10T01:42:17;97910.28;;;22.17
27826;BMP280;15077;49.704;9.908;2023-06-10T01:44:44;97914.91;;;22.14
27826;BMP280;15077;49.704;9.908;2023-06-10T01:47:10;97914.22;;;22.12
27826;BMP280;15077;49.704;9.908;2023-06-10T01:49:35;97913.56;;;22.10
27826;BMP280;15077;49.704;9.908;2023-06-10T01:52:01;97915.44;;;22.08
27826;BMP280;15077;49.704;9.908;2023-06-10T01:54:27;97913.81;;;22.07
27826;BMP280;15077;49.704;9.908;2023-06-10T01:56:53;97919.25;;;22.04
27826;BMP280;15077;49.704;9.908;2023-06-10T01:59:19;97915.97;;;22.02
27826;BMP280;15077;49.704;9.908;2023-06-10T02:01:45;97917.91;;;22.00
27826;BMP280;15077;49.704;9.908;2023-06-10T02:04:10;97920.75;;;21.97
27826;BMP280;15077;49.704;9.908;2023-06-10T02:06:36;97918.31;;;21.95
27826;BMP280;15077;49.704;9.908;2023-06-10T02:09:03;97932.28;;;21.93
27826;BMP280;15077;49.704;9.908;2023-06-10T02:11:29;97929.84;;;21.92
27826;BMP280;15077;49.704;9.908;2023-06-10T02:13:55;97929.16;;;21.90
27826;BMP280;15077;49.704;9.908;2023-06-10T02:16:21;97926.72;;;21.88
27826;BMP280;15077;49.704;9.908;2023-06-10T02:18:47;97931.22;;;21.86
27826;BMP280;15077;49.704;9.908;2023-06-10T02:21:14;97937.44;;;21.84
27826;BMP280;15077;49.704;9.908;2023-06-10T02:23:40;97931.63;;;21.82
27826;BMP280;15077;49.704;9.908;2023-06-10T02:26:06;97924.00;;;21.80
27826;BMP280;15077;49.704;9.908;2023-06-10T02:28:32;97925.09;;;21.78
27826;BMP280;15077;49.704;9.908;2023-06-10T02:31:00;97926.16;;;21.75
27826;BMP280;15077;49.704;9.908;2023-06-10T02:33:26;97925.34;;;21.75
27826;BMP280;15077;49.704;9.908;2023-06-10T02:35:52;97928.19;;;21.72
27826;BMP280;15077;49.704;9.908;2023-06-10T02:38:18;97923.31;;;21.69
27826;BMP280;15077;49.704;9.908;2023-06-10T02:40:44;97920.06;;;21.67
27826;BMP280;15077;49.704;9.908;2023-06-10T02:43:10;97927.91;;;21.65
27826;BMP280;15077;49.704;9.908;2023-06-10T02:45:38;97929.13;;;21.61
27826;BMP280;15077;49.704;9.908;2023-06-10T02:48:04;97926.81;;;21.58
27826;BMP280;15077;49.704;9.908;2023-06-10T02:50:30;97928.69;;;21.56
27826;BMP280;15077;49.704;9.908;2023-06-10T02:52:56;97923.00;;;21.53
27826;BMP280;15077;49.704;9.908;2023-06-10T02:55:22;97920.28;;;21.54
27826;BMP280;15077;49.704;9.908;2023-06-10T02:57:52;97918.66;;;21.53
27826;BMP280;15077;49.704;9.908;2023-06-10T03:00:20;97925.72;;;21.51
27826;BMP280;15077;49.704;9.908;2023-06-10T03:02:47;97926.78;;;21.49
27826;BMP280;15077;49.704;9.908;2023-06-10T03:05:12;97930.47;;;21.46
27826;BMP280;15077;49.704;9.908;2023-06-10T03:07:39;97926.22;;;21.45
27826;BMP280;15077;49.704;9.908;2023-06-10T03:10:06;97930.69;;;21.43
27826;BMP280;15077;49.704;9.908;2023-06-10T03:12:32;97935.16;;;21.42
27826;BMP280;15077;49.704;9.908;2023-06-10T03:14:58;97926.75;;;21.40
27826;BMP280;15077;49.704;9.908;2023-06-10T03:17:24;97937.31;;;21.37
27826;BMP280;15077;49.704;9.908;2023-06-10T03:19:50;97934.06;;;21.35
27826;BMP280;15077;49.704;9.908;2023-06-10T03:22:16;97928.66;;;21.38
27826;BMP280;15077;49.704;9.908;2023-06-10T03:24:42;97932.16;;;21.37
27826;BMP280;15077;49.704;9.908;2023-06-10T03:27:10;97937.59;;;21.34
27826;BMP280;15077;49.704;9.908;2023-06-10T03:29:37;97936.22;;;21.30
27826;BMP280;15077;49.704;9.908;2023-06-10T03:32:06;97941.50;;;21.28
27826;BMP280;15077;49.704;9.908;2023-06-10T03:34:32;97934.84;;;21.26
27826;BMP280;15077;49.704;9.908;2023-06-10T03:36:59;97935.78;;;21.25
27826;BMP280;15077;49.704;9.908;2023-06-10T03:39:26;97937.31;;;21.27
27826;BMP280;15077;49.704;9.908;2023-06-10T03:41:55;97940.00;;;21.26
27826;BMP280;15077;49.704;9.908;2023-06-10T03:44:25;97929.00;;;21.24
27826;BMP280;15077;49.704;9.908;2023-06-10T03:46:56;97933.47;;;21.22
27826;BMP280;15077;49.704;9.908;2023-06-10T03:49:23;97939.56;;;21.21
27826;BMP280;15077;49.704;9.908;2023-06-10T03:51:53;97937.00;;;21.21
27826;BMP280;15077;49.704;9.908;2023-06-10T03:54:19;97937.97;;;21.20
27826;BMP280;15077;49.704;9.908;2023-06-10T03:56:45;97939.56;;;21.21
27826;BMP280;15077;49.704;9.908;2023-06-10T03:59:10;97944.72;;;21.21
27826;BMP280;15077;49.704;9.908;2023-06-10T04:01:40;97943.00;;;21.21
27826;BMP280;15077;49.704;9.908;2023-06-10T04:04:08;97947.31;;;21.21
27826;BMP280;15077;49.704;9.908;2023-06-10T04:06:37;97948.13;;;21.21
27826;BMP280;15077;49.704;9.908;2023-06-10T04:09:04;97947.31;;;21.21
27826;BMP280;15077;49.704;9.908;2023-06-10T04:11:30;97947.31;;;21.21
27826;BMP280;15077;49.704;9.908;2023-06-10T04:13:55;97950.59;;;21.23
27826;BMP280;15077;49.704;9.908;2023-06-10T04:16:21;97940.28;;;21.23
27826;BMP280;15077;49.704;9.908;2023-06-10T04:18:47;97952.19;;;21.24
27826;BMP280;15077;49.704;9.908;2023-06-10T04:21:13;97944.34;;;21.25
27826;BMP280;15077;49.704;9.908;2023-06-10T04:23:38;97954.50;;;21.27
27826;BMP280;15077;49.704;9.908;2023-06-10T04:26:04;97956.97;;;21.28
27826;BMP280;15077;49.704;9.908;2023-06-10T04:28:31;97950.06;;;21.29
27826;BMP280;15077;49.704;9.908;2023-06-10T04:30:57;97958.47;;;21.31
27826;BMP280;15077;49.704;9.908;2023-06-10T04:33:23;97962.69;;;21.32
27826;BMP280;15077;49.704;9.908;2023-06-10T04:35:50;97974.34;;;21.36
27826;BMP280;15077;49.704;9.908;2023-06-10T04:38:16;97961.34;;;21.37
27826;BMP280;15077;49.704;9.908;2023-06-10T04:40:42;97960.25;;;21.40
27826;BMP280;15077;49.704;9.908;2023-06-10T04:43:08;97967.06;;;21.41
27826;BMP280;15077;49.704;9.908;2023-06-10T04:45:33;97963.50;;;21.42
27826;BMP280;15077;49.704;9.908;2023-06-10T04:47:59;97961.66;;;21.43
27826;BMP280;15077;49.704;9.908;2023-06-10T04:50:25;97961.50;;;21.45
27826;BMP280;15077;49.704;9.908;2023-06-10T04:52:51;97959.63;;;21.47
27826;BMP280;15077;49.704;9.908;2023-06-10T04:55:16;97968.88;;;21.49
27826;BMP280;15077;49.704;9.908;2023-06-10T04:57:42;97962.75;;;21.50
27826;BMP280;15077;49.704;9.908;2023-06-10T05:00:09;97968.63;;;21.52
27826;BMP280;15077;49.704;9.908;2023-06-10T05:02:35;97970.09;;;21.55
27826;BMP280;15077;49.704;9.908;2023-06-10T05:05:00;97973.38;;;21.57
27826;BMP280;15077;49.704;9.908;2023-06-10T05:07:26;97965.38;;;21.60
27826;BMP280;15077;49.704;9.908;2023-06-10T05:09:52;97958.31;;;21.62
27826;BMP280;15077;49.704;9.908;2023-06-10T05:12:17;97963.78;;;21.68
27826;BMP280;15077;49.704;9.908;2023-06-10T05:14:43;97966.75;;;21.73
27826;BMP280;15077;49.704;9.908;2023-06-10T05:17:10;97967.31;;;21.77
27826;BMP280;15077;49.704;9.908;2023-06-10T05:19:36;97963.78;;;21.78
27826;BMP280;15077;49.704;9.908;2023-06-10T05:22:03;97968.53;;;21.82
27826;BMP280;15077;49.704;9.908;2023-06-10T05:24:28;97964.06;;;21.84
27826;BMP280;15077;49.704;9.908;2023-06-10T05:26:54;97967.34;;;21.86
27826;BMP280;15077;49.704;9.908;2023-06-10T05:29:20;97960.13;;;21.90
27826;BMP280;15077;49.704;9.908;2023-06-10T05:31:46;97958.94;;;21.93
27826;BMP280;15077;49.704;9.908;2023-06-10T05:34:12;97959.59;;;21.95
27826;BMP280;15077;49.704;9.908;2023-06-10T05:36:37;97955.66;;;22.01
27826;BMP280;15077;49.704;9.908;2023-06-10T05:39:03;97951.84;;;22.05
27826;BMP280;15077;49.704;9.908;2023-06-10T05:41:29;97954.03;;;22.09
27826;BMP280;15077;49.704;9.908;2023-06-10T05:43:55;97957.31;;;22.11
27826;BMP280;15077;49.704;9.908;2023-06-10T05:46:21;97960.53;;;22.13
27826;BMP280;15077;49.704;9.908;2023-06-10T05:48:46;97960.13;;;22.18
27826;BMP280;15077;49.704;9.908;2023-06-10T05:51:12;97959.88;;;22.21
27826;BMP280;15077;49.704;9.908;2023-06-10T05:53:38;97961.25;;;22.25
27826;BMP280;15077;49.704;9.908;2023-06-10T05:56:04;97962.63;;;22.29
27826;BMP280;15077;49.704;9.908;2023-06-10T05:58:30;97948.63;;;22.31
27826;BMP280;15077;49.704;9.908;2023-06-10T06:00:55;97962.75;;;22.37
27826;BMP280;15077;49.704;9.908;2023-06-10T06:03:21;97963.28;;;22.40
27826;BMP280;15077;49.704;9.908;2023-06-10T06:05:47;97967.09;;;22.45
27826;BMP280;15077;49.704;9.908;2023-06-10T06:08:13;97963.28;;;22.49
27826;BMP280;15077;49.704;9.908;2023-06-10T06:10:39;97964.63;;;22.53
27826;BMP280;15077;49.704;9.908;2023-06-10T06:13:05;97964.09;;;22.59
27826;BMP280;15077;49.704;9.908;2023-06-10T06:15:30;97969.66;;;22.64
27826;BMP280;15077;49.704;9.908;2023-06-10T06:17:56;97973.47;;;22.70
27826;BMP280;15077;49.704;9.908;2023-06-10T06:20:22;97980.78;;;22.74
27826;BMP280;15077;49.704;9.908;2023-06-10T06:22:48;97981.19;;;22.79
27826;BMP280;15077;49.704;9.908;2023-06-10T06:25:14;97979.81;;;22.85
27826;BMP280;15077;49.704;9.908;2023-06-10T06:27:40;97980.88;;;22.91
27826;BMP280;15077;49.704;9.908;2023-06-10T06:30:07;97983.06;;;22.96
27826;BMP280;15077;49.704;9.908;2023-06-10T06:32:33;97975.72;;;23.01
27826;BMP280;15077;49.704;9.908;2023-06-10T06:34:59;97977.88;;;23.05
27826;BMP280;15077;49.704;9.908;2023-06-10T06:37:25;97978.13;;;23.12
27826;BMP280;15077;49.704;9.908;2023-06-10T06:39:52;97977.41;;;23.19
27826;BMP280;15077;49.704;9.908;2023-06-10T06:42:20;97971.66;;;23.25
27826;BMP280;15077;49.704;9.908;2023-06-10T06:44:46;97976.97;;;23.33
27826;BMP280;15077;49.704;9.908;2023-06-10T06:47:13;97974.59;;;23.40
27826;BMP280;15077;49.704;9.908;2023-06-10T06:49:39;97975.69;;;23.46
27826;BMP280;15077;49.704;9.908;2023-06-10T06:52:05;97978.50;;;23.53
27826;BMP280;15077;49.704;9.908;2023-06-10T06:54:31;97979.41;;;23.61
27826;BMP280;15077;49.704;9.908;2023-06-10T06:56:57;97975.97;;;23.70
27826;BMP280;15077;49.704;9.908;2023-06-10T06:59:23;97980.56;;;23.76
27826;BMP280;15077;49.704;9.908;2023-06-10T07:01:51;97979.03;;;23.83
27826;BMP280;15077;49.704;9.908;2023-06-10T07:04:16;97991.25;;;23.91
27826;BMP280;15077;49.704;9.908;2023-06-10T07:06:42;97982.91;;;23.96
27826;BMP280;15077;49.704;9.908;2023-06-10T07:09:08;97979.88;;;24.01
27826;BMP280;15077;49.704;9.908;2023-06-10T07:11:34;97986.09;;;24.08
27826;BMP280;15077;49.704;9.908;2023-06-10T07:14:00;97985.22;;;24.17
27826;BMP280;15077;49.704;9.908;2023-06-10T07:16:26;97985.63;;;24.30
27826;BMP280;15077;49.704;9.908;2023-06-10T07:18:53;97978.13;;;24.36
27826;BMP280;15077;49.704;9.908;2023-06-10T07:21:18;97982.25;;;24.46
27826;BMP280;15077;49.704;9.908;2023-06-10T07:23:44;97976.69;;;24.59
27826;BMP280;15077;49.704;9.908;2023-06-10T07:26:11;97973.84;;;24.70
27826;BMP280;15077;49.704;9.908;2023-06-10T07:28:42;97982.78;;;24.75
27826;BMP280;15077;49.704;9.908;2023-06-10T07:31:08;97977.31;;;24.78
27826;BMP280;15077;49.704;9.908;2023-06-10T07:33:34;97983.50;;;24.85
27826;BMP280;15077;49.704;9.908;2023-06-10T07:36:00;97976.09;;;24.90
27826;BMP280;15077;49.704;9.908;2023-06-10T07:38:26;97976.44;;;24.95
27826;BMP280;15077;49.704;9.908;2023-06-10T07:40:52;97986.25;;;25.01
27826;BMP280;15077;49.704;9.908;2023-06-10T07:43:19;97976.59;;;25.11
27826;BMP280;15077;49.704;9.908;2023-06-10T07:45:45;97967.88;;;25.20
27826;BMP280;15077;49.704;9.908;2023-06-10T07:48:11;97975.69;;;25.28
27826;BMP280;15077;49.704;9.908;2023-06-10T07:50:37;97976.84;;;25.33
27826;BMP280;15077;49.704;9.908;2023-06-10T07:53:03;97971.69;;;25.41
27826;BMP280;15077;49.704;9.908;2023-06-10T07:55:29;97972.69;;;25.48
27826;BMP280;15077;49.704;9.908;2023-06-10T07:57:55;97971.13;;;25.55
27826;BMP280;15077;49.704;9.908;2023-06-10T08:00:21;97968.38;;;25.64
27826;BMP280;15077;49.704;9.908;2023-06-10T08:02:47;97973.63;;;25.72
27826;BMP280;15077;49.704;9.908;2023-06-10T08:05:13;97975.13;;;25.83
27826;BMP280;15077;49.704;9.908;2023-06-10T08:07:42;97980.97;;;25.92
27826;BMP280;15077;49.704;9.908;2023-06-10T08:10:08;97980.19;;;26.00
27826;BMP280;15077;49.704;9.908;2023-06-10T08:12:35;97980.69;;;26.11
27826;BMP280;15077;49.704;9.908;2023-06-10T08:15:02;97978.94;;;26.28
27826;BMP280;15077;49.704;9.908;2023-06-10T08:17:30;97975.72;;;26.41
27826;BMP280;15077;49.704;9.908;2023-06-10T08:19:56;97973.75;;;26.51
27826;BMP280;15077;49.704;9.908;2023-06-10T08:22:22;97971.19;;;26.59
27826;BMP280;15077;49.704;9.908;2023-06-10T08:24:47;97969.53;;;26.66
27826;BMP280;15077;49.704;9.908;2023-06-10T08:27:13;97965.81;;;26.77
27826;BMP280;15077;49.704;9.908;2023-06-10T08:29:39;97965.63;;;26.86
27826;BMP280;15077;49.704;9.908;2023-06-10T08:32:06;97969.84;;;26.95
27826;BMP280;15077;49.704;9.908;2023-06-10T08:34:35;97964.13;;;27.07
27826;BMP280;15077;49.704;9.908;2023-06-10T08:37:02;97970.75;;;27.18
27826;BMP280;15077;49.704;9.908;2023-06-10T08:39:28;97969.78;;;27.27
27826;BMP280;15077;49.704;9.908;2023-06-10T08:42:34;97972.34;;;27.35
27826;BMP280;15077;49.704;9.908;2023-06-10T08:45:02;97972.63;;;27.47
27826;BMP280;15077;49.704;9.908;2023-06-10T08:47:30;97970.31;;;27.60
27826;BMP280;15077;49.704;9.908;2023-06-10T08:50:02;97970.34;;;27.52
27826;BMP280;15077;49.704;9.908;2023-06-10T08:52:35;97967.28;;;27.79
27826;BMP280;15077;49.704;9.908;2023-06-10T08:55:38;97964.81;;;27.86
27826;BMP280;15077;49.704;9.908;2023-06-10T08:58:06;97957.38;;;28.05
27826;BMP280;15077;49.704;9.908;2023-06-10T09:00:33;97958.63;;;28.17
27826;BMP280;15077;49.704;9.908;2023-06-10T09:03:00;97949.59;;;28.27
27826;BMP280;15077;49.704;9.908;2023-06-10T09:05:28;97952.59;;;28.38
27826;BMP280;15077;49.704;9.908;2023-06-10T09:07:57;97951.38;;;28.49
27826;BMP280;15077;49.704;9.908;2023-06-10T09:10:22;97950.31;;;28.58
27826;BMP280;15077;49.704;9.908;2023-06-10T09:12:48;97949.09;;;28.68
27826;BMP280;15077;49.704;9.908;2023-06-10T09:15:14;97949.66;;;28.78
27826;BMP280;15077;49.704;9.908;2023-06-10T09:17:43;97943.19;;;28.88
27826;BMP280;15077;49.704;9.908;2023-06-10T09:20:09;97947.00;;;29.00
27826;BMP280;15077;49.704;9.908;2023-06-10T09:22:35;97943.13;;;29.11
27826;BMP280;15077;49.704;9.908;2023-06-10T09:25:08;97938.44;;;29.21
27826;BMP280;15077;49.704;9.908;2023-06-10T09:27:49;97943.84;;;29.34
27826;BMP280;15077;49.704;9.908;2023-06-10T09:30:30;97949.59;;;29.43
27826;BMP280;15077;49.704;9.908;2023-06-10T09:32:59;97940.31;;;29.55
27826;BMP280;15077;49.704;9.908;2023-06-10T09:35:28;97942.28;;;29.68
27826;BMP280;15077;49.704;9.908;2023-06-10T09:37:57;97945.19;;;29.79
27826;BMP280;15077;49.704;9.908;2023-06-10T09:40:24;97944.13;;;29.88
27826;BMP280;15077;49.704;9.908;2023-06-10T09:42:59;97944.28;;;30.01
27826;BMP280;15077;49.704;9.908;2023-06-10T09:45:30;97946.41;;;30.12
27826;BMP280;15077;49.704;9.908;2023-06-10T09:48:00;97949.88;;;30.19
27826;BMP280;15077;49.704;9.908;2023-06-10T09:50:25;97941.28;;;30.25
27826;BMP280;15077;49.704;9.908;2023-06-10T09:52:51;97944.59;;;30.33
27826;BMP280;15077;49.704;9.908;2023-06-10T09:55:18;97938.25;;;30.42
27826;BMP280;15077;49.704;9.908;2023-06-10T09:57:44;97934.50;;;30.51
27826;BMP280;15077;49.704;9.908;2023-06-10T10:00:14;97939.44;;;30.60
27826;BMP280;15077;49.704;9.908;2023-06-10T10:02:50;97931.44;;;30.68
27826;BMP280;15077;49.704;9.908;2023-06-10T10:05:18;97935.72;;;30.76
27826;BMP280;15077;49.704;9.908;2023-06-10T10:07:45;97939.38;;;30.81
27826;BMP280;15077;49.704;9.908;2023-06-10T10:10:13;97933.03;;;30.90
27826;BMP280;15077;49.704;9.908;2023-06-10T10:12:41;97929.66;;;30.96
27826;BMP280;15077;49.704;9.908;2023-06-10T10:15:11;97931.31;;;31.03
27826;BMP280;15077;49.704;9.908;2023-06-10T10:18:09;97929.50;;;31.04
27826;BMP280;15077;49.704;9.908;2023-06-10T10:20:52;97925.72;;;31.13
27826;BMP280;15077;49.704;9.908;2023-06-10T10:23:32;97933.03;;;31.24
27826;BMP280;15077;49.704;9.908;2023-06-10T10:26:05;97930.47;;;31.37
27826;BMP280;15077;49.704;9.908;2023-06-10T10:28:45;97919.66;;;31.46
27826;BMP280;15077;49.704;9.908;2023-06-10T10:31:18;97940.69;;;31.59
27826;BMP280;15077;49.704;9.908;2023-06-10T10:34:15;97933.44;;;31.61
27826;BMP280;15077;49.704;9.908;2023-06-10T10:36:42;97924.19;;;31.71
27826;BMP280;15077;49.704;9.908;2023-06-10T10:39:09;97925.81;;;31.79
27826;BMP280;15077;49.704;9.908;2023-06-10T10:41:37;97920.41;;;31.87
27826;BMP280;15077;49.704;9.908;2023-06-10T10:44:09;97922.06;;;31.94
27826;BMP280;15077;49.704;9.908;2023-06-10T10:46:49;97917.22;;;31.97
27826;BMP280;15077;49.704;9.908;2023-06-10T10:49:17;97919.06;;;32.03
27826;BMP280;15077;49.704;9.908;2023-06-10T10:52:03;97920.25;;;32.01
27826;BMP280;15077;49.704;9.908;2023-06-10T10:54:34;97919.66;;;32.05
27826;BMP280;15077;49.704;9.908;2023-06-10T10:57:10;97908.16;;;32.06
27826;BMP280;15077;49.704;9.908;2023-06-10T10:59:55;97897.69;;;32.06
27826;BMP280;15077;49.704;9.908;2023-06-10T11:02:42;97906.34;;;32.07
27826;BMP280;15077;49.704;9.908;2023-06-10T11:05:16;97910.59;;;32.14
27826;BMP280;15077;49.704;9.908;2023-06-10T11:07:54;97902.31;;;32.11
27826;BMP280;15077;49.704;9.908;2023-06-10T11:13:09;97897.06;;;32.17
27826;BMP280;15077;49.704;9.908;2023-06-10T11:15:43;97906.56;;;32.25
27826;BMP280;15077;49.704;9.908;2023-06-10T11:18:29;97899.31;;;32.27
27826;BMP280;15077;49.704;9.908;2023-06-10T11:23:33;97898.94;;;32.42
27826;BMP280;15077;49.704;9.908;2023-06-10T11:31:31;97897.91;;;32.43
27826;BMP280;15077;49.704;9.908;2023-06-10T11:34:03;97895.47;;;32.42
27826;BMP280;15077;49.704;9.908;2023-06-10T11:36:31;97896.31;;;32.42
27826;BMP280;15077;49.704;9.908;2023-06-10T11:39:06;97904.16;;;32.42
27826;BMP280;15077;49.704;9.908;2023-06-10T11:41:35;97897.91;;;32.43
27826;BMP280;15077;49.704;9.908;2023-06-10T11:44:09;97908.78;;;32.40
27826;BMP280;15077;49.704;9.908;2023-06-10T11:46:35;97901.31;;;32.37
27826;BMP280;15077;49.704;9.908;2023-06-10T11:49:03;97895.28;;;32.37
27826;BMP280;15077;49.704;9.908;2023-06-10T11:51:40;97890.63;;;32.39
27826;BMP280;15077;49.704;9.908;2023-06-10T11:54:09;97885.81;;;32.42
27826;BMP280;15077;49.704;9.908;2023-06-10T11:56:35;97898.16;;;32.48
27826;BMP280;15077;49.704;9.908;2023-06-10T11:59:04;97886.84;;;32.54
27826;BMP280;15077;49.704;9.908;2023-06-10T12:01:35;97894.91;;;32.59
27826;BMP280;15077;49.704;9.908;2023-06-10T12:04:08;97885.63;;;32.63
27826;BMP280;15077;49.704;9.908;2023-06-10T12:06:42;97885.63;;;32.63
27826;BMP280;15077;49.704;9.908;2023-06-10T12:09:28;97880.38;;;32.63
27826;BMP280;15077;49.704;9.908;2023-06-10T12:12:03;97884.41;;;32.59
27826;BMP280;15077;49.704;9.908;2023-06-10T12:15:01;97885.63;;;32.50
27826;BMP280;15077;49.704;9.908;2023-06-10T12:19:58;97874.50;;;32.61
27826;BMP280;15077;49.704;9.908;2023-06-10T12:22:24;97879.13;;;32.66
27826;BMP280;15077;49.704;9.908;2023-06-10T12:25:02;97862.19;;;32.68
27826;BMP280;15077;49.704;9.908;2023-06-10T12:27:33;97873.09;;;32.72
27826;BMP280;15077;49.704;9.908;2023-06-10T12:30:01;97874.91;;;32.71
27826;BMP280;15077;49.704;9.908;2023-06-10T12:32:36;97867.03;;;32.65
27826;BMP280;15077;49.704;9.908;2023-06-10T12:35:04;97867.03;;;32.58
27826;BMP280;15077;49.704;9.908;2023-06-10T12:37:30;97865.22;;;32.52
27826;BMP280;15077;49.704;9.908;2023-06-10T12:40:03;97877.94;;;32.49
27826;BMP280;15077;49.704;9.908;2023-06-10T12:42:30;97868.06;;;32.44
27826;BMP280;15077;49.704;9.908;2023-06-10T12:44:57;97873.31;;;32.44
27826;BMP280;15077;49.704;9.908;2023-06-10T12:47:31;97869.69;;;32.45
27826;BMP280;15077;49.704;9.908;2023-06-10T12:49:59;97865.25;;;32.46
27826;BMP280;15077;49.704;9.908;2023-06-10T12:52:25;97868.88;;;32.51
27826;BMP280;15077;49.704;9.908;2023-06-10T12:54:51;97870.47;;;32.59
27826;BMP280;15077;49.704;9.908;2023-06-10T12:57:17;97865.22;;;32.65
27826;BMP280;15077;49.704;9.908;2023-06-10T12:59:43;97857.53;;;32.70
27826;BMP280;15077;49.704;9.908;2023-06-10T13:02:16;97854.09;;;32.76
27826;BMP280;15077;49.704;9.908;2023-06-10T13:04:44;97872.06;;;32.79
27826;BMP280;15077;49.704;9.908;2023-06-10T13:07:10;97857.31;;;32.78
27826;BMP280;15077;49.704;9.908;2023-06-10T13:09:36;97860.53;;;32.80
27826;BMP280;15077;49.704;9.908;2023-06-10T13:12:02;97861.38;;;32.81
27826;BMP280;15077;49.704;9.908;2023-06-10T13:14:28;97865.59;;;32.82
27826;BMP280;15077;49.704;9.908;2023-06-10T13:16:55;97857.28;;;32.85
27826;BMP280;15077;49.704;9.908;2023-06-10T13:19:21;97859.31;;;32.89
27826;BMP280;15077;49.704;9.908;2023-06-10T13:21:49;97852.03;;;32.91
27826;BMP280;15077;49.704;9.908;2023-06-10T13:24:15;97849.22;;;32.92
27826;BMP280;15077;49.704;9.908;2023-06-10T13:26:41;97853.63;;;32.92
27826;BMP280;15077;49.704;9.908;2023-06-10T13:29:07;97857.28;;;32.91
27826;BMP280;15077;49.704;9.908;2023-06-10T13:31:40;97854.88;;;32.89
27826;BMP280;15077;49.704;9.908;2023-06-10T13:34:06;97852.88;;;32.85
27826;BMP280;15077;49.704;9.908;2023-06-10T13:36:32;97852.25;;;32.83
27826;BMP280;15077;49.704;9.908;2023-06-10T13:38:58;97847.41;;;32.80
27826;BMP280;15077;49.704;9.908;2023-06-10T13:41:24;97854.91;;;32.77
27826;BMP280;15077;49.704;9.908;2023-06-10T13:43:50;97848.44;;;32.73
27826;BMP280;15077;49.704;9.908;2023-06-10T13:46:16;97839.56;;;32.67
27826;BMP280;15077;49.704;9.908;2023-06-10T13:48:41;97841.59;;;32.65
27826;BMP280;15077;49.704;9.908;2023-06-10T13:51:07;97844.41;;;32.64
27826;BMP280;15077;49.704;9.908;2023-06-10T13:53:34;97841.22;;;32.62
27826;BMP280;15077;49.704;9.908;2023-06-10T13:56:01;97837.16;;;32.59
27826;BMP280;15077;49.704;9.908;2023-06-10T13:58:27;97841.00;;;32.57
27826;BMP280;15077;49.704;9.908;2023-06-10T14:00:53;97842.81;;;32.56
27826;BMP280;15077;49.704;9.908;2023-06-10T14:03:19;97830.28;;;32.58
27826;BMP280;15077;49.704;9.908;2023-06-10T14:05:44;97833.13;;;32.63
27826;BMP280;15077;49.704;9.908;2023-06-10T14:08:10;97825.66;;;32.67
27826;BMP280;15077;49.704;9.908;2023-06-10T14:10:36;97831.09;;;32.72
27826;BMP280;15077;49.704;9.908;2023-06-10T14:13:02;97825.44;;;32.75
27826;BMP280;15077;49.704;9.908;2023-06-10T14:15:28;97831.06;;;32.78
27826;BMP280;15077;49.704;9.908;2023-06-10T14:17:53;97835.31;;;32.79
27826;BMP280;15077;49.704;9.908;2023-06-10T14:20:19;97826.63;;;32.79
27826;BMP280;15077;49.704;9.908;2023-06-10T14:22:45;97832.69;;;32.79
27826;BMP280;15077;49.704;9.908;2023-06-10T14:25:11;97838.34;;;32.76
27826;BMP280;15077;49.704;9.908;2023-06-10T14:27:37;97827.84;;;32.76
27826;BMP280;15077;49.704;9.908;2023-06-10T14:30:03;97830.50;;;32.76